Time;durP1;ratioP1;P1;durP2;ratioP2;P2;SDS_P1;SDS_P2;PMS_P1;PMS_P2;Temp;Humidity;BMP_temperature;BMP_pressure;BME280_temperature;BME280_humidity;BME280_pressure;Samples;Min_cycle;Max_cycle;Signal;HPM_P1;HPM_P2
2023/04/24 00:00:56;;;;;;;;;;;12.50;93.80;;;;;;5109770;28;19908;-67
2023/04/24 00:03:25;;;;;;;;;;;12.50;94.00;;;;;;5110288;28;20329;-67
2023/04/24 00:05:51;;;;;;;;;;;12.50;94.00;;;;;;5110712;28;19919;-67
2023/04/24 00:08:17;;;;;;;;;;;12.50;93.60;;;;;;5110895;28;19912;-67
2023/04/24 00:10:43;;;;;;;;;;;12.40;93.90;;;;;;5110491;27;19915;-67
2023/04/24 00:13:08;;;;;;;;;;;12.40;94.30;;;;;;5110341;28;19951;-67
2023/04/24 00:15:34;;;;;;;;;;;12.40;94.00;;;;;;5110828;28;20336;-67
2023/04/24 00:18:01;;;;;;;;;;;12.40;94.00;;;;;;5110611;28;19919;-67
2023/04/24 00:20:28;;;;;;;;;;;12.40;94.00;;;;;;5110537;28;19924;-67
2023/04/24 00:22:53;;;;;;;;;;;12.30;93.90;;;;;;5110131;28;19912;-67
2023/04/24 00:25:19;;;;;;;;;;;12.30;94.10;;;;;;5110446;28;19916;-67
2023/04/24 00:27:47;;;;;;;;;;;12.30;93.90;;;;;;5110092;28;19955;-66
2023/04/24 00:30:13;;;;;;;;;;;12.30;94.20;;;;;;5109069;28;19919;-67
2023/04/24 00:32:38;;;;;;;;;;;12.30;94.20;;;;;;5108584;28;20329;-67
2023/04/24 00:35:05;;;;;;;;;;;12.30;94.00;;;;;;5110249;28;19911;-67
2023/04/24 00:37:31;;;;;;;;;;;12.20;94.10;;;;;;5110339;28;20411;-67
2023/04/24 00:39:56;;;;;;;;;;;12.20;94.10;;;;;;5110112;28;19911;-67
2023/04/24 00:42:22;;;;;;;;;;;12.20;94.30;;;;;;5109716;28;19912;-67
2023/04/24 00:44:48;;;;;;;;;;;12.10;94.10;;;;;;5110327;28;20365;-67
2023/04/24 00:47:14;;;;;;;;;;;12.10;94.00;;;;;;5109732;28;19911;-67
2023/04/24 00:49:39;;;;;;;;;;;12.10;94.00;;;;;;5110138;28;19911;-67
2023/04/24 00:52:08;;;;;;;;;;;12.10;94.10;;;;;;5109889;28;20359;-67
2023/04/24 00:54:34;;;;;;;;;;;12.00;94.00;;;;;;5109883;28;19972;-67
2023/04/24 00:57:01;;;;;;;;;;;12.00;94.10;;;;;;5108223;28;19991;-67
2023/04/24 00:59:26;;;;;;;;;;;12.00;94.10;;;;;;5109377;27;20027;-67
2023/04/24 01:01:52;;;;;;;;;;;12.00;94.10;;;;;;5109812;28;19998;-67
2023/04/24 01:04:18;;;;;;;;;;;12.00;94.10;;;;;;5108675;28;19960;-67
2023/04/24 01:06:44;;;;;;;;;;;11.90;93.90;;;;;;5109995;28;19965;-67
2023/04/24 01:09:11;;;;;;;;;;;11.90;94.10;;;;;;5108186;28;19919;-67
2023/04/24 01:11:37;;;;;;;;;;;11.90;94.10;;;;;;5108029;28;19919;-67
2023/04/24 01:14:02;;;;;;;;;;;11.90;94.20;;;;;;5109024;28;20303;-67
2023/04/24 01:16:28;;;;;;;;;;;11.90;94.20;;;;;;5109692;28;20361;-67
2023/04/24 01:18:53;;;;;;;;;;;11.90;94.20;;;;;;5109508;28;19919;-67
2023/04/24 01:21:20;;;;;;;;;;;11.80;94.10;;;;;;5109789;28;20268;-67
2023/04/24 01:23:45;;;;;;;;;;;11.80;94.10;;;;;;5107814;28;19912;-67
2023/04/24 01:26:12;;;;;;;;;;;11.80;94.10;;;;;;5109298;28;19935;-67
2023/04/24 01:28:38;;;;;;;;;;;11.80;94.00;;;;;;5109345;28;20337;-67
2023/04/24 01:31:03;;;;;;;;;;;11.80;94.10;;;;;;5109349;28;19923;-67
2023/04/24 01:33:29;;;;;;;;;;;11.80;94.10;;;;;;5093268;28;19929;-67
2023/04/24 01:35:54;;;;;;;;;;;11.80;94.10;;;;;;5088858;28;20364;-67
2023/04/24 01:38:20;;;;;;;;;;;11.80;94.10;;;;;;5088821;28;20496;-67
2023/04/24 01:40:46;;;;;;;;;;;11.80;94.10;;;;;;5095439;28;19941;-67
2023/04/24 01:43:12;;;;;;;;;;;11.80;94.00;;;;;;5108795;28;19911;-67
2023/04/24 01:45:37;;;;;;;;;;;11.80;93.90;;;;;;5109142;28;19922;-67
2023/04/24 01:48:03;;;;;;;;;;;11.80;94.10;;;;;;5108685;28;20364;-67
2023/04/24 01:50:28;;;;;;;;;;;11.80;93.80;;;;;;5109028;28;19918;-67
2023/04/24 01:52:54;;;;;;;;;;;11.70;94.00;;;;;;5108532;28;20286;-67
2023/04/24 01:55:19;;;;;;;;;;;11.70;94.10;;;;;;5108943;28;19973;-67
2023/04/24 01:57:45;;;;;;;;;;;11.70;94.10;;;;;;5102543;28;20005;-67
2023/04/24 02:00:11;;;;;;;;;;;11.70;94.20;;;;;;5108754;28;20303;-67
2023/04/24 02:02:38;;;;;;;;;;;11.70;94.10;;;;;;5108491;28;19916;-67
2023/04/24 02:05:05;;;;;;;;;;;11.60;94.20;;;;;;5107424;28;19915;-67
2023/04/24 02:07:32;;;;;;;;;;;11.70;94.10;;;;;;5108806;28;19916;-67
2023/04/24 02:09:58;;;;;;;;;;;11.60;94.10;;;;;;5108640;28;19908;-67
2023/04/24 02:12:23;;;;;;;;;;;11.60;94.10;;;;;;5108378;28;20379;-67
2023/04/24 02:14:49;;;;;;;;;;;11.60;94.10;;;;;;5108355;28;19915;-67
2023/04/24 02:17:15;;;;;;;;;;;11.60;94.10;;;;;;5106631;28;19918;-67
2023/04/24 02:19:41;;;;;;;;;;;11.60;93.80;;;;;;5108236;28;19916;-67
2023/04/24 02:22:07;;;;;;;;;;;11.50;94.00;;;;;;5107093;28;19918;-67
2023/04/24 02:24:32;;;;;;;;;;;11.50;94.10;;;;;;5107177;28;19912;-67
2023/04/24 02:26:58;;;;;;;;;;;11.50;93.90;;;;;;5111047;28;19912;-67
2023/04/24 02:29:23;;;;;;;;;;;11.40;94.10;;;;;;5112700;28;19931;-67
2023/04/24 02:31:49;;;;;;;;;;;11.40;93.80;;;;;;5112678;28;20423;-67
2023/04/24 02:34:14;;;;;;;;;;;11.40;93.90;;;;;;5112521;28;19947;-67
2023/04/24 02:36:40;;;;;;;;;;;11.40;94.00;;;;;;5112708;28;20425;-67
2023/04/24 02:39:05;;;;;;;;;;;11.40;94.00;;;;;;5112722;27;20489;-67
2023/04/24 02:41:32;;;;;;;;;;;11.40;94.10;;;;;;5112706;28;19961;-67
2023/04/24 02:43:58;;;;;;;;;;;11.40;94.10;;;;;;5112450;28;19911;-67
2023/04/24 02:46:25;;;;;;;;;;;11.30;93.80;;;;;;5112257;28;19915;-67
2023/04/24 02:48:50;;;;;;;;;;;11.30;93.70;;;;;;5112337;28;20484;-67
2023/04/24 02:51:15;;;;;;;;;;;11.30;94.00;;;;;;5112608;28;19920;-67
2023/04/24 02:53:41;;;;;;;;;;;11.30;93.50;;;;;;5112247;27;19912;-67
2023/04/24 02:56:07;;;;;;;;;;;11.20;93.40;;;;;;5112475;28;19964;-67
2023/04/24 02:58:32;;;;;;;;;;;11.30;93.80;;;;;;5111709;28;19973;-67
2023/04/24 03:00:58;;;;;;;;;;;11.20;93.80;;;;;;5110693;28;19912;-67
2023/04/24 03:03:24;;;;;;;;;;;11.20;93.90;;;;;;5111819;28;19912;-67
2023/04/24 03:05:50;;;;;;;;;;;11.20;93.90;;;;;;5111900;27;20430;-67
2023/04/24 03:08:15;;;;;;;;;;;11.20;93.50;;;;;;5112272;28;19912;-67
2023/04/24 03:10:41;;;;;;;;;;;11.20;93.90;;;;;;5112089;28;19915;-67
2023/04/24 03:13:06;;;;;;;;;;;11.20;94.10;;;;;;5110280;28;20376;-67
2023/04/24 03:15:32;;;;;;;;;;;11.20;93.60;;;;;;5111949;28;20379;-67
2023/04/24 03:17:57;;;;;;;;;;;11.20;93.80;;;;;;5111856;28;20002;-67
2023/04/24 03:20:23;;;;;;;;;;;11.20;94.10;;;;;;5111572;28;19919;-67
2023/04/24 03:22:48;;;;;;;;;;;11.20;93.80;;;;;;5109936;28;19912;-67
2023/04/24 03:25:14;;;;;;;;;;;11.20;93.90;;;;;;5105629;28;20063;-67
2023/04/24 03:27:39;;;;;;;;;;;11.20;93.90;;;;;;5111486;28;19915;-67
2023/04/24 03:30:06;;;;;;;;;;;11.20;94.00;;;;;;5110293;28;20535;-67
2023/04/24 03:32:32;;;;;;;;;;;11.20;93.90;;;;;;5111057;28;19911;-67
2023/04/24 03:34:57;;;;;;;;;;;11.20;94.00;;;;;;5111434;28;19908;-67
2023/04/24 03:37:23;;;;;;;;;;;11.20;93.60;;;;;;5111129;28;20402;-67
2023/04/24 03:39:48;;;;;;;;;;;11.20;93.80;;;;;;5111494;28;19911;-67
2023/04/24 03:42:14;;;;;;;;;;;11.10;93.90;;;;;;5110980;28;19988;-67
2023/04/24 03:44:39;;;;;;;;;;;11.20;94.00;;;;;;5111527;28;19911;-67
2023/04/24 03:47:05;;;;;;;;;;;11.10;93.90;;;;;;5111110;28;19916;-67
2023/04/24 03:49:30;;;;;;;;;;;11.10;93.90;;;;;;5109477;28;19977;-67
2023/04/24 03:51:56;;;;;;;;;;;11.20;94.00;;;;;;5111004;28;19954;-67
2023/04/24 03:54:21;;;;;;;;;;;11.10;93.80;;;;;;5110873;28;19919;-67
2023/04/24 03:56:47;;;;;;;;;;;11.10;93.90;;;;;;5111114;28;19914;-67
2023/04/24 03:59:13;;;;;;;;;;;11.10;93.80;;;;;;5110736;28;20002;-67
2023/04/24 04:01:39;;;;;;;;;;;11.10;94.00;;;;;;5111240;28;19938;-67
2023/04/24 04:04:05;;;;;;;;;;;11.10;94.00;;;;;;5110446;28;20379;-67
2023/04/24 04:06:31;;;;;;;;;;;11.10;94.00;;;;;;5111041;27;19963;-67
2023/04/24 04:08:56;;;;;;;;;;;11.10;93.80;;;;;;5110229;28;19912;-67
2023/04/24 04:11:22;;;;;;;;;;;11.10;93.90;;;;;;5110287;28;19923;-67
2023/04/24 04:13:48;;;;;;;;;;;11.10;93.90;;;;;;5109789;28;19908;-67
2023/04/24 04:16:13;;;;;;;;;;;11.10;93.90;;;;;;5110366;28;19933;-67
2023/04/24 04:18:39;;;;;;;;;;;11.10;94.00;;;;;;5109709;28;19908;-67
2023/04/24 04:21:05;;;;;;;;;;;11.10;93.90;;;;;;5110241;28;19916;-67
2023/04/24 04:23:31;;;;;;;;;;;11.10;94.10;;;;;;5110126;28;19916;-67
2023/04/24 04:25:57;;;;;;;;;;;11.10;94.00;;;;;;5110533;28;19960;-67
2023/04/24 04:28:24;;;;;;;;;;;11.10;94.00;;;;;;5108458;28;19908;-66
2023/04/24 04:30:53;;;;;;;;;;;11.10;94.00;;;;;;5110856;28;19914;-67
2023/04/24 04:33:22;;;;;;;;;;;11.10;93.80;;;;;;5109937;28;19942;-67
2023/04/24 04:35:51;;;;;;;;;;;11.10;94.00;;;;;;5109127;28;19973;-67
2023/04/24 04:38:18;;;;;;;;;;;11.10;94.10;;;;;;5110293;28;19915;-67
2023/04/24 04:40:44;;;;;;;;;;;11.10;94.10;;;;;;5110031;28;19908;-67
2023/04/24 04:43:10;;;;;;;;;;;11.10;94.00;;;;;;5109989;28;19912;-67
2023/04/24 04:45:37;;;;;;;;;;;11.00;93.80;;;;;;5110269;28;19922;-67
2023/04/24 04:48:03;;;;;;;;;;;11.00;94.00;;;;;;5109235;28;19938;-68
2023/04/24 04:50:28;;;;;;;;;;;11.10;93.90;;;;;;5109811;28;19941;-67
2023/04/24 04:52:54;;;;;;;;;;;11.00;93.70;;;;;;5109462;28;19933;-67
2023/04/24 04:55:20;;;;;;;;;;;11.00;93.90;;;;;;5109643;28;19969;-67
2023/04/24 04:57:48;;;;;;;;;;;11.10;93.90;;;;;;5108841;28;19946;-67
2023/04/24 05:00:14;;;;;;;;;;;11.00;93.80;;;;;;5107987;28;19912;-67
2023/04/24 05:02:40;;;;;;;;;;;11.00;93.80;;;;;;5108475;28;19918;-67
2023/04/24 05:05:06;;;;;;;;;;;11.00;93.80;;;;;;5109353;28;19990;-67
2023/04/24 05:07:31;;;;;;;;;;;11.00;93.80;;;;;;5109688;28;19916;-67
2023/04/24 05:09:57;;;;;;;;;;;11.00;93.80;;;;;;5109613;28;20008;-67
2023/04/24 05:12:22;;;;;;;;;;;11.00;93.90;;;;;;5107942;28;19955;-67
2023/04/24 05:14:48;;;;;;;;;;;11.00;93.80;;;;;;5109662;28;19990;-67
2023/04/24 05:17:13;;;;;;;;;;;11.00;93.70;;;;;;5109578;28;20020;-67
2023/04/24 05:19:39;;;;;;;;;;;11.00;93.80;;;;;;5109360;28;20422;-67
2023/04/24 05:22:06;;;;;;;;;;;11.00;93.90;;;;;;5090807;28;19918;-67
2023/04/24 05:24:32;;;;;;;;;;;11.00;93.90;;;;;;5109029;28;19912;-67
2023/04/24 05:26:58;;;;;;;;;;;11.00;93.80;;;;;;5109376;28;19919;-67
2023/04/24 05:29:24;;;;;;;;;;;11.00;93.60;;;;;;5109358;27;19908;-67
2023/04/24 05:31:49;;;;;;;;;;;11.00;93.80;;;;;;5107942;28;19960;-67
2023/04/24 05:34:16;;;;;;;;;;;11.00;93.80;;;;;;5109155;28;19937;-67
2023/04/24 05:36:42;;;;;;;;;;;11.00;93.80;;;;;;5109652;28;19958;-67
2023/04/24 05:39:08;;;;;;;;;;;11.00;93.90;;;;;;5108888;28;20368;-67
2023/04/24 05:41:34;;;;;;;;;;;10.90;93.70;;;;;;5109047;28;19912;-67
2023/04/24 05:43:59;;;;;;;;;;;11.00;93.80;;;;;;5108857;28;19945;-67
2023/04/24 05:46:25;;;;;;;;;;;10.90;93.80;;;;;;5108028;28;19916;-67
2023/04/24 05:48:50;;;;;;;;;;;11.00;93.80;;;;;;5109161;28;19918;-67
2023/04/24 05:51:16;;;;;;;;;;;10.90;93.80;;;;;;5109359;28;19923;-67
2023/04/24 05:53:41;;;;;;;;;;;10.90;93.70;;;;;;5107122;28;19915;-67
2023/04/24 05:56:07;;;;;;;;;;;10.90;93.80;;;;;;5109093;28;20433;-67
2023/04/24 05:58:32;;;;;;;;;;;10.90;93.90;;;;;;5108185;28;19916;-67
2023/04/24 06:00:58;;;;;;;;;;;10.90;93.90;;;;;;5108786;28;19918;-67
2023/04/24 06:03:24;;;;;;;;;;;10.90;94.00;;;;;;5108587;28;19914;-67
2023/04/24 06:05:50;;;;;;;;;;;10.90;93.90;;;;;;5108870;28;19957;-67
2023/04/24 06:08:16;;;;;;;;;;;10.90;93.80;;;;;;5108903;28;19947;-67
2023/04/24 06:10:42;;;;;;;;;;;10.90;94.10;;;;;;5108815;28;20458;-67
2023/04/24 06:13:07;;;;;;;;;;;10.90;94.00;;;;;;5108506;28;19919;-67
2023/04/24 06:15:33;;;;;;;;;;;10.90;93.90;;;;;;5108687;28;19912;-67
2023/04/24 06:17:58;;;;;;;;;;;10.90;93.90;;;;;;5108672;28;19907;-67
2023/04/24 06:20:24;;;;;;;;;;;10.90;94.00;;;;;;5108635;28;19922;-67
2023/04/24 06:22:50;;;;;;;;;;;10.90;94.00;;;;;;5108016;28;19919;-67
2023/04/24 06:25:16;;;;;;;;;;;10.90;93.90;;;;;;5108625;28;19916;-67
2023/04/24 06:27:41;;;;;;;;;;;10.90;93.80;;;;;;5108661;28;20425;-67
2023/04/24 06:30:07;;;;;;;;;;;10.90;94.00;;;;;;5108678;28;20512;-67
2023/04/24 06:32:32;;;;;;;;;;;10.90;93.90;;;;;;5108297;28;19957;-67
2023/04/24 06:34:58;;;;;;;;;;;10.90;93.90;;;;;;5108140;28;19912;-67
2023/04/24 06:37:23;;;;;;;;;;;10.90;93.90;;;;;;5108728;28;20356;-67
2023/04/24 06:39:49;;;;;;;;;;;10.90;94.00;;;;;;5107220;28;19919;-67
2023/04/24 06:42:15;;;;;;;;;;;10.90;93.90;;;;;;5107892;28;20010;-67
2023/04/24 06:44:40;;;;;;;;;;;10.90;93.90;;;;;;5107129;28;20648;-67
2023/04/24 06:47:08;;;;;;;;;;;10.90;93.80;;;;;;5108391;28;19916;-67
2023/04/24 06:49:34;;;;;;;;;;;10.90;93.80;;;;;;5108416;28;19908;-67
2023/04/24 06:52:00;;;;;;;;;;;10.90;93.80;;;;;;5108262;28;19954;-67
2023/04/24 06:54:25;;;;;;;;;;;10.90;93.90;;;;;;5108237;28;19947;-67
2023/04/24 06:56:51;;;;;;;;;;;10.90;93.90;;;;;;5108318;28;20022;-67
2023/04/24 06:59:17;;;;;;;;;;;11.00;93.80;;;;;;5107562;28;19912;-67
2023/04/24 07:01:42;;;;;;;;;;;11.00;93.80;;;;;;5108461;28;19908;-67
2023/04/24 07:04:08;;;;;;;;;;;11.00;93.80;;;;;;5108041;28;19908;-67
2023/04/24 07:06:35;;;;;;;;;;;11.00;93.90;;;;;;5108513;28;20530;-67
2023/04/24 07:09:01;;;;;;;;;;;11.00;93.90;;;;;;5108088;28;20092;-67
2023/04/24 07:11:29;;;;;;;;;;;11.00;93.90;;;;;;5109171;28;20002;-67
2023/04/24 07:13:55;;;;;;;;;;;11.00;94.00;;;;;;5111736;28;20248;-67
2023/04/24 07:16:20;;;;;;;;;;;11.00;94.00;;;;;;5112083;28;19911;-67
2023/04/24 07:18:46;;;;;;;;;;;11.10;93.90;;;;;;5111694;28;19920;-67
2023/04/24 07:21:11;;;;;;;;;;;11.10;93.90;;;;;;5112215;28;19911;-67
2023/04/24 07:23:37;;;;;;;;;;;11.10;94.00;;;;;;5111366;28;19911;-67
2023/04/24 07:26:02;;;;;;;;;;;11.10;93.80;;;;;;5111962;28;19927;-67
2023/04/24 07:28:30;;;;;;;;;;;11.10;93.90;;;;;;5111614;28;20398;-67
2023/04/24 07:30:56;;;;;;;;;;;11.10;93.90;;;;;;5112073;28;19918;-67
2023/04/24 07:33:22;;;;;;;;;;;11.20;93.90;;;;;;5111328;28;19943;-67
2023/04/24 07:35:48;;;;;;;;;;;11.10;93.90;;;;;;5110079;28;19947;-67
2023/04/24 07:38:14;;;;;;;;;;;11.20;93.90;;;;;;5111034;28;20004;-67
2023/04/24 07:40:39;;;;;;;;;;;11.10;93.80;;;;;;5111002;28;19911;-67
2023/04/24 07:43:05;;;;;;;;;;;11.10;93.90;;;;;;5109764;28;19919;-67
2023/04/24 07:45:32;;;;;;;;;;;11.10;94.00;;;;;;5111074;28;20274;-67
2023/04/24 07:47:57;;;;;;;;;;;11.10;93.90;;;;;;5109810;28;19938;-67
2023/04/24 07:50:23;;;;;;;;;;;11.10;94.10;;;;;;5111291;28;19908;-67
2023/04/24 07:52:48;;;;;;;;;;;11.10;94.00;;;;;;5109454;28;19915;-67
2023/04/24 07:55:14;;;;;;;;;;;11.20;93.90;;;;;;5109761;28;19973;-67
2023/04/24 07:57:39;;;;;;;;;;;11.20;93.90;;;;;;5103567;28;19961;-67
2023/04/24 08:00:05;;;;;;;;;;;11.20;94.20;;;;;;5110834;28;20376;-67
2023/04/24 08:02:31;;;;;;;;;;;11.20;94.00;;;;;;5110797;28;20006;-67
2023/04/24 08:04:56;;;;;;;;;;;11.20;93.90;;;;;;5110922;28;20550;-67
2023/04/24 08:07:23;;;;;;;;;;;11.20;93.90;;;;;;5110680;28;19916;-67
2023/04/24 08:09:48;;;;;;;;;;;11.20;93.90;;;;;;5110851;28;19907;-67
2023/04/24 08:12:14;;;;;;;;;;;11.20;93.80;;;;;;5110581;28;19965;-67
2023/04/24 08:14:39;;;;;;;;;;;11.20;93.80;;;;;;5110872;28;19994;-67
2023/04/24 08:17:05;;;;;;;;;;;11.20;93.80;;;;;;5110690;28;19962;-67
2023/04/24 08:19:31;;;;;;;;;;;11.20;93.70;;;;;;5110429;28;19924;-67
2023/04/24 08:21:56;;;;;;;;;;;11.20;93.80;;;;;;5109724;28;20284;-67
2023/04/24 08:24:22;;;;;;;;;;;11.20;93.80;;;;;;5110096;28;20388;-67
2023/04/24 08:26:51;;;;;;;;;;;11.20;94.00;;;;;;5110784;28;19912;-67
2023/04/24 08:29:16;;;;;;;;;;;11.20;93.70;;;;;;5110609;28;19918;-67
2023/04/24 08:31:42;;;;;;;;;;;11.20;93.80;;;;;;5108932;28;19919;-67
2023/04/24 08:34:08;;;;;;;;;;;11.20;93.80;;;;;;5110150;28;19915;-67
2023/04/24 08:36:34;;;;;;;;;;;11.20;93.70;;;;;;5110282;28;19912;-67
2023/04/24 08:38:59;;;;;;;;;;;11.20;93.90;;;;;;5109774;28;19911;-67
2023/04/24 08:41:26;;;;;;;;;;;11.20;93.90;;;;;;5110025;28;20399;-67
2023/04/24 08:43:52;;;;;;;;;;;11.10;93.70;;;;;;5110052;28;19995;-67
2023/04/24 08:46:18;;;;;;;;;;;11.10;94.00;;;;;;5110402;28;19995;-67
2023/04/24 08:48:44;;;;;;;;;;;11.10;93.90;;;;;;5110052;28;19942;-67
2023/04/24 08:51:10;;;;;;;;;;;11.10;94.00;;;;;;5110227;28;19969;-67
2023/04/24 08:53:36;;;;;;;;;;;11.10;94.00;;;;;;5109800;28;19911;-67
2023/04/24 08:56:01;;;;;;;;;;;11.10;94.10;;;;;;5110124;28;19918;-67
2023/04/24 08:58:27;;;;;;;;;;;11.10;94.00;;;;;;5103666;28;19978;-67
2023/04/24 09:00:56;;;;;;;;;;;11.10;94.20;;;;;;5109967;28;19914;-67
2023/04/24 09:03:22;;;;;;;;;;;11.10;94.20;;;;;;5109402;28;19911;-67
2023/04/24 09:05:50;;;;;;;;;;;11.10;94.10;;;;;;5109761;28;19927;-67
2023/04/24 09:08:18;;;;;;;;;;;11.10;94.30;;;;;;5109798;28;19911;-67
2023/04/24 09:10:44;;;;;;;;;;;11.00;94.20;;;;;;5109699;28;20280;-67
2023/04/24 09:13:10;;;;;;;;;;;11.00;94.20;;;;;;5109222;28;19912;-67
2023/04/24 09:15:40;;;;;;;;;;;11.00;94.20;;;;;;5109825;28;19919;-67
2023/04/24 09:18:05;;;;;;;;;;;11.00;94.20;;;;;;5109735;28;19950;-67
2023/04/24 09:20:31;;;;;;;;;;;11.00;94.20;;;;;;5109570;28;20349;-67
2023/04/24 09:22:57;;;;;;;;;;;11.10;94.20;;;;;;5109297;28;20588;-67
2023/04/24 09:25:25;;;;;;;;;;;11.10;94.30;;;;;;5100050;28;20296;-67
2023/04/24 09:27:53;;;;;;;;;;;11.10;94.30;;;;;;5108950;28;19912;-67
2023/04/24 09:30:21;;;;;;;;;;;11.10;94.30;;;;;;5142545;27;19911;-67
2023/04/24 09:32:47;;;;;;;;;;;11.10;94.30;;;;;;5109222;28;20629;-67
2023/04/24 09:35:13;;;;;;;;;;;11.10;94.20;;;;;;5109018;28;19934;-67
2023/04/24 09:37:41;;;;;;;;;;;11.10;94.30;;;;;;5109242;28;19911;-67
2023/04/24 09:40:07;;;;;;;;;;;11.10;94.40;;;;;;5108956;27;19943;-67
2023/04/24 09:42:33;;;;;;;;;;;11.10;94.40;;;;;;5108803;28;19939;-67
2023/04/24 09:44:59;;;;;;;;;;;11.10;94.60;;;;;;5109261;28;20288;-67
2023/04/24 09:47:24;;;;;;;;;;;11.10;94.50;;;;;;5109288;28;19963;-67
2023/04/24 09:49:50;;;;;;;;;;;11.10;94.50;;;;;;5109125;28;19908;-67
2023/04/24 09:52:15;;;;;;;;;;;11.10;94.60;;;;;;5108982;28;20428;-67
2023/04/24 09:54:40;;;;;;;;;;;11.10;94.70;;;;;;5108891;28;19919;-67
2023/04/24 09:57:09;;;;;;;;;;;11.00;94.70;;;;;;5104466;28;19916;-67
2023/04/24 09:59:35;;;;;;;;;;;11.00;94.60;;;;;;5106079;28;20484;-67
2023/04/24 10:02:00;;;;;;;;;;;11.00;94.50;;;;;;5108984;28;19912;-67
2023/04/24 10:04:26;;;;;;;;;;;11.00;94.80;;;;;;5108753;28;19912;-67
2023/04/24 10:06:53;;;;;;;;;;;11.00;94.70;;;;;;5105539;28;20449;-67
2023/04/24 10:09:19;;;;;;;;;;;11.00;94.70;;;;;;5101770;28;19961;-67
2023/04/24 10:11:46;;;;;;;;;;;11.00;94.70;;;;;;5105377;28;19908;-67
2023/04/24 10:14:13;;;;;;;;;;;11.00;94.80;;;;;;5108758;28;20410;-67
2023/04/24 10:16:40;;;;;;;;;;;11.00;94.70;;;;;;5108660;28;19908;-68
2023/04/24 10:19:05;;;;;;;;;;;10.90;94.70;;;;;;5107387;28;19922;-67
2023/04/24 10:21:31;;;;;;;;;;;10.90;94.60;;;;;;5108740;28;19924;-67
2023/04/24 10:23:57;;;;;;;;;;;10.90;94.70;;;;;;5108006;28;19911;-67
2023/04/24 10:26:23;;;;;;;;;;;10.90;94.70;;;;;;5108593;28;19920;-67
2023/04/24 10:28:50;;;;;;;;;;;10.90;94.80;;;;;;5090533;28;20451;-67
2023/04/24 10:31:17;;;;;;;;;;;10.90;94.80;;;;;;5088195;28;19912;-67
2023/04/24 10:33:43;;;;;;;;;;;10.90;94.80;;;;;;5087868;28;20002;-67
2023/04/24 10:36:12;;;;;;;;;;;10.90;94.80;;;;;;5088356;28;20007;-67
2023/04/24 10:38:40;;;;;;;;;;;10.90;94.80;;;;;;5088015;28;19913;-67
2023/04/24 10:41:22;;;;;;;;;;;11.00;94.90;;;;;;5097086;28;19908;-67
2023/04/24 10:43:50;;;;;;;;;;;11.00;94.80;;;;;;5107900;28;19908;-67
2023/04/24 10:46:19;;;;;;;;;;;11.00;94.80;;;;;;5109642;28;19955;-67
2023/04/24 10:48:51;;;;;;;;;;;10.90;94.80;;;;;;5110611;28;19914;-67
2023/04/24 10:51:17;;;;;;;;;;;11.00;94.80;;;;;;5112046;28;19947;-67
2023/04/24 10:53:42;;;;;;;;;;;11.00;95.00;;;;;;5111880;28;20339;-67
2023/04/24 10:56:13;;;;;;;;;;;11.00;94.90;;;;;;5112168;28;19912;-67
2023/04/24 10:58:44;;;;;;;;;;;10.90;94.70;;;;;;5111455;28;20010;-67
2023/04/24 11:01:30;;;;;;;;;;;11.00;94.80;;;;;;5111924;28;19912;-67
2023/04/24 11:03:57;;;;;;;;;;;11.00;94.70;;;;;;5105904;28;19912;-67
2023/04/24 11:06:32;;;;;;;;;;;11.00;94.70;;;;;;5111755;28;20439;-67
2023/04/24 11:09:05;;;;;;;;;;;11.00;94.80;;;;;;5111582;28;20046;-67
2023/04/24 11:11:31;;;;;;;;;;;11.00;94.80;;;;;;5111979;28;19989;-67
2023/04/24 11:13:57;;;;;;;;;;;11.00;94.80;;;;;;5111537;28;19939;-67
2023/04/24 11:16:25;;;;;;;;;;;11.10;94.70;;;;;;5111816;28;19908;-68
2023/04/24 11:19:20;;;;;;;;;;;11.10;94.80;;;;;;5111248;28;19923;-68
2023/04/24 11:22:02;;;;;;;;;;;11.10;94.80;;;;;;5101135;28;20265;-67
2023/04/24 11:24:46;;;;;;;;;;;11.10;94.80;;;;;;5109792;28;19916;-67
2023/04/24 11:27:16;;;;;;;;;;;11.10;94.90;;;;;;5111518;27;19985;-67
2023/04/24 11:29:48;;;;;;;;;;;11.10;94.90;;;;;;5111390;28;20033;-67
2023/04/24 11:47:30;;;;;;;;;;;11.30;94.50;;;;;;5104032;28;19918;-68
2023/04/24 11:49:55;;;;;;;;;;;11.40;94.50;;;;;;5109411;28;19947;-68
2023/04/24 11:52:21;;;;;;;;;;;11.40;94.50;;;;;;5110908;28;19954;-68
2023/04/24 11:54:52;;;;;;;;;;;11.40;94.50;;;;;;5094672;28;19919;-68
2023/04/24 11:57:21;;;;;;;;;;;11.40;94.50;;;;;;5090604;28;20268;-68
2023/04/24 11:59:47;;;;;;;;;;;11.30;94.50;;;;;;5110602;28;19912;-67
2023/04/24 12:02:22;;;;;;;;;;;11.30;94.60;;;;;;5110776;28;20575;-67
2023/04/24 12:04:48;;;;;;;;;;;11.30;94.70;;;;;;5109337;28;19908;-68
2023/04/24 12:07:13;;;;;;;;;;;11.20;94.50;;;;;;5109545;28;20044;-68
2023/04/24 12:09:42;;;;;;;;;;;11.20;94.70;;;;;;5109593;28;19915;-67
2023/04/24 12:12:08;;;;;;;;;;;11.20;94.80;;;;;;5110949;28;19964;-68
2023/04/24 12:14:42;;;;;;;;;;;11.20;94.80;;;;;;5111214;27;19946;-68
2023/04/24 12:17:07;;;;;;;;;;;11.20;94.70;;;;;;5110984;28;19911;-68
2023/04/24 12:19:33;;;;;;;;;;;11.30;94.60;;;;;;5110568;28;19915;-68
2023/04/24 12:21:59;;;;;;;;;;;11.30;94.50;;;;;;5109031;28;19914;-68
2023/04/24 12:24:24;;;;;;;;;;;11.40;94.40;;;;;;5110306;28;19958;-68
2023/04/24 12:26:50;;;;;;;;;;;11.60;94.20;;;;;;5110745;28;19954;-68
2023/04/24 12:29:20;;;;;;;;;;;11.60;94.10;;;;;;5110530;28;19911;-68
2023/04/24 12:31:45;;;;;;;;;;;11.80;94.00;;;;;;5110195;28;20638;-67
2023/04/24 12:34:20;;;;;;;;;;;11.80;93.90;;;;;;5110285;28;19919;-68
2023/04/24 12:36:46;;;;;;;;;;;11.80;93.90;;;;;;5110226;28;19912;-67
2023/04/24 12:39:19;;;;;;;;;;;11.80;93.80;;;;;;5110029;28;19912;-68
2023/04/24 12:41:57;;;;;;;;;;;11.80;93.80;;;;;;5110120;28;19915;-68
2023/04/24 12:44:29;;;;;;;;;;;11.80;93.80;;;;;;5110304;28;19912;-68
2023/04/24 12:46:54;;;;;;;;;;;11.70;93.90;;;;;;5110155;28;19911;-68
2023/04/24 12:49:20;;;;;;;;;;;11.70;94.00;;;;;;5109845;28;20520;-68
2023/04/24 12:51:45;;;;;;;;;;;11.70;94.00;;;;;;5108812;28;19912;-67
2023/04/24 12:54:11;;;;;;;;;;;11.70;94.00;;;;;;5109275;28;19912;-67
2023/04/24 12:56:39;;;;;;;;;;;11.60;93.90;;;;;;5107544;28;20310;-67
2023/04/24 12:59:04;;;;;;;;;;;11.60;94.10;;;;;;5109047;28;20368;-68
2023/04/24 13:01:30;;;;;;;;;;;11.60;94.20;;;;;;5109886;28;19916;-67
2023/04/24 13:03:56;;;;;;;;;;;11.60;94.20;;;;;;5107958;28;20649;-67
2023/04/24 13:06:21;;;;;;;;;;;11.60;94.10;;;;;;5109778;28;19923;-68
2023/04/24 13:08:48;;;;;;;;;;;11.60;94.10;;;;;;5108972;28;20332;-68
2023/04/24 13:11:14;;;;;;;;;;;11.70;94.00;;;;;;5109905;28;20306;-68
2023/04/24 13:13:39;;;;;;;;;;;11.70;93.90;;;;;;5109410;28;19908;-68
2023/04/24 13:16:05;;;;;;;;;;;11.70;93.70;;;;;;5108707;28;19916;-67
2023/04/24 13:18:30;;;;;;;;;;;11.80;93.50;;;;;;5108188;28;19916;-67
2023/04/24 13:20:56;;;;;;;;;;;11.80;93.60;;;;;;5109434;28;20666;-67
2023/04/24 13:23:22;;;;;;;;;;;11.90;93.50;;;;;;5109018;28;19916;-67
2023/04/24 13:25:48;;;;;;;;;;;11.90;93.30;;;;;;5109309;27;19912;-68
2023/04/24 13:28:13;;;;;;;;;;;12.00;93.40;;;;;;5109606;28;20276;-67
2023/04/24 13:30:39;;;;;;;;;;;12.00;93.30;;;;;;5109634;27;19908;-67
2023/04/24 13:33:05;;;;;;;;;;;12.00;93.10;;;;;;5109077;28;20261;-67
2023/04/24 13:35:31;;;;;;;;;;;12.00;93.00;;;;;;5109276;28;19923;-67
2023/04/24 13:37:57;;;;;;;;;;;12.00;92.90;;;;;;5107709;28;19918;-67
2023/04/24 13:40:22;;;;;;;;;;;12.10;93.20;;;;;;5107439;28;20403;-67
2023/04/24 13:42:48;;;;;;;;;;;12.00;93.10;;;;;;5108571;28;19953;-67
2023/04/24 13:45:14;;;;;;;;;;;12.00;92.90;;;;;;5107450;28;19990;-67
2023/04/24 13:47:40;;;;;;;;;;;12.00;93.00;;;;;;5108661;28;19907;-67
2023/04/24 13:50:08;;;;;;;;;;;12.10;93.00;;;;;;5108834;28;19912;-67
2023/04/24 13:52:33;;;;;;;;;;;12.10;92.80;;;;;;5106632;28;19935;-67
2023/04/24 13:54:59;;;;;;;;;;;12.10;93.10;;;;;;5108397;28;20336;-67
2023/04/24 13:57:24;;;;;;;;;;;12.10;93.00;;;;;;5107079;28;19911;-67
2023/04/24 13:59:50;;;;;;;;;;;12.10;92.80;;;;;;5108600;28;19911;-67
2023/04/24 14:02:15;;;;;;;;;;;12.10;93.00;;;;;;5108791;28;20355;-67
2023/04/24 14:04:41;;;;;;;;;;;12.10;92.70;;;;;;5108807;28;19927;-67
2023/04/24 14:07:07;;;;;;;;;;;12.10;93.00;;;;;;5108970;28;20383;-67
2023/04/24 14:09:33;;;;;;;;;;;12.10;92.60;;;;;;5107498;28;20011;-67
2023/04/24 14:12:00;;;;;;;;;;;12.10;93.00;;;;;;5108738;28;20398;-67
2023/04/24 14:14:26;;;;;;;;;;;12.10;92.50;;;;;;5108664;28;19919;-67
2023/04/24 14:16:52;;;;;;;;;;;12.20;92.40;;;;;;5109056;28;19916;-67
2023/04/24 14:19:17;;;;;;;;;;;12.20;92.20;;;;;;5107199;28;19915;-67
2023/04/24 14:21:43;;;;;;;;;;;12.30;92.40;;;;;;5110219;28;19908;-67
2023/04/24 14:24:08;;;;;;;;;;;12.40;92.20;;;;;;5112423;28;19911;-67
2023/04/24 14:26:34;;;;;;;;;;;12.40;92.00;;;;;;5113084;28;19923;-67